createdAt,value
2018-09-20T00:02:01.313Z,75.81
2018-09-20T00:04:29.882Z,75.96
2018-09-20T00:06:58.477Z,77.00
2018-09-20T00:09:27.035Z,76.62
2018-09-20T00:11:55.571Z,77.39
2018-09-20T00:14:24.014Z,77.01
2018-09-20T00:16:52.524Z,76.77
2018-09-20T00:19:21.579Z,77.37
2018-09-20T00:21:50.121Z,77.24
2018-09-20T00:24:18.631Z,77.90
2018-09-20T00:26:47.763Z,77.42
2018-09-20T00:29:16.999Z,78.48
2018-09-20T00:31:45.635Z,77.83
2018-09-20T00:34:14.023Z,78.33
2018-09-20T00:36:42.413Z,78.42
2018-09-20T00:39:13.313Z,78.67
2018-09-20T00:41:41.801Z,78.05
2018-09-20T00:44:11.248Z,79.40
2018-09-20T00:46:39.873Z,79.72
2018-09-20T00:49:08.271Z,79.61
2018-09-20T00:51:36.750Z,79.50
2018-09-20T00:54:05.201Z,79.31
2018-09-20T00:56:33.647Z,79.16
2018-09-20T00:59:02.220Z,80.11
2018-09-20T01:01:30.669Z,79.88
2018-09-20T01:03:59.184Z,79.92
2018-09-20T01:06:27.740Z,79.76
2018-09-20T01:08:56.194Z,79.27
2018-09-20T01:11:24.672Z,79.40
2018-09-20T01:13:53.180Z,79.78
2018-09-20T01:16:21.796Z,79.61
2018-09-20T01:18:50.197Z,79.69
2018-09-20T01:21:19.020Z,80.37
2018-09-20T01:23:47.483Z,80.59
2018-09-20T01:26:15.907Z,80.68
2018-09-20T01:28:44.494Z,80.39
2018-09-20T01:31:13.030Z,80.51
2018-09-20T01:33:41.425Z,80.83
2018-09-20T01:36:09.896Z,80.91
2018-09-20T01:38:38.380Z,80.63
2018-09-20T01:41:06.943Z,80.30
2018-09-20T01:43:35.397Z,80.70
2018-09-20T01:46:04.548Z,81.02
2018-09-20T01:48:32.988Z,81.43
2018-09-20T01:51:01.487Z,81.61
2018-09-20T01:53:29.937Z,81.46
2018-09-20T01:55:58.500Z,81.51
2018-09-20T01:58:27.213Z,81.79
2018-09-20T02:00:55.627Z,81.57
2018-09-20T02:03:24.672Z,80.84
2018-09-20T02:05:53.166Z,81.16
2018-09-20T02:08:21.622Z,81.17
2018-09-20T02:10:50.382Z,81.60
2018-09-20T02:13:18.835Z,81.34
2018-09-20T02:15:47.227Z,82.04
2018-09-20T02:18:15.773Z,80.89
2018-09-20T02:20:44.273Z,81.25
2018-09-20T02:23:12.756Z,80.81
2018-09-20T02:25:41.299Z,81.15
2018-09-20T02:28:10.388Z,81.32
2018-09-20T02:30:38.910Z,81.42
2018-09-20T02:33:07.371Z,81.58
2018-09-20T02:35:35.891Z,81.11
2018-09-20T02:38:04.364Z,81.13
2018-09-20T02:40:32.873Z,81.54
2018-09-20T02:43:01.298Z,81.01
2018-09-20T02:45:29.773Z,80.68
2018-09-20T02:47:58.497Z,80.36
2018-09-20T02:50:27.005Z,80.86
2018-09-20T02:52:55.440Z,80.96
2018-09-20T02:55:23.922Z,81.18
2018-09-20T02:57:52.485Z,80.56
2018-09-20T03:00:20.952Z,80.99
2018-09-20T03:02:49.468Z,81.11
2018-09-20T03:05:17.975Z,81.21
2018-09-20T03:07:46.596Z,81.06
2018-09-20T03:10:15.069Z,80.57
2018-09-20T03:12:43.566Z,80.32
2018-09-20T03:15:12.086Z,80.06
2018-09-20T03:17:41.395Z,80.40
2018-09-20T03:20:10.966Z,79.59
2018-09-20T03:22:40.237Z,80.12
2018-09-20T03:25:08.677Z,80.00
2018-09-20T03:27:37.151Z,79.99
2018-09-20T03:30:05.722Z,80.35
2018-09-20T03:32:34.172Z,80.27
2018-09-20T03:35:02.700Z,80.36
2018-09-20T03:37:31.183Z,79.79
2018-09-20T03:39:59.612Z,80.08
2018-09-20T03:42:28.091Z,80.27
2018-09-20T03:44:56.975Z,80.50
2018-09-20T03:47:26.395Z,80.86
2018-09-20T03:49:55.330Z,80.71
2018-09-20T03:52:23.763Z,81.06
2018-09-20T03:54:52.307Z,80.40
2018-09-20T03:57:21.189Z,81.73
2018-09-20T03:59:49.640Z,80.86
2018-09-20T04:02:18.040Z,80.74
2018-09-20T04:04:46.920Z,80.40
2018-09-20T04:07:15.669Z,80.62
2018-09-20T04:09:44.157Z,81.08
2018-09-20T04:12:12.671Z,81.05
2018-09-20T04:14:41.263Z,81.29
2018-09-20T04:17:09.783Z,80.84
2018-09-20T04:19:38.990Z,81.03
2018-09-20T04:22:07.362Z,80.80
2018-09-20T04:24:35.860Z,80.69
2018-09-20T04:27:04.376Z,80.79
2018-09-20T04:29:33.001Z,80.64
2018-09-20T04:32:01.509Z,80.69
2018-09-20T04:34:29.940Z,80.62
2018-09-20T04:36:58.419Z,80.77
2018-09-20T04:39:26.978Z,80.78
2018-09-20T04:41:55.381Z,80.59
2018-09-20T04:44:23.823Z,80.45
2018-09-20T04:46:52.567Z,80.73
2018-09-20T04:49:21.037Z,80.53
2018-09-20T04:51:49.576Z,80.39
2018-09-20T04:54:18.056Z,80.60
2018-09-20T04:56:46.626Z,81.38
2018-09-20T04:59:15.471Z,81.31
2018-09-20T05:01:44.144Z,80.83
2018-09-20T05:04:13.380Z,80.89
2018-09-20T05:06:42.098Z,80.50
2018-09-20T05:09:12.907Z,81.75
2018-09-20T05:11:41.861Z,81.11
2018-09-20T05:14:10.661Z,80.57
2018-09-20T05:16:39.335Z,80.93
2018-09-20T05:19:07.983Z,81.05
2018-09-20T05:21:36.516Z,81.71
2018-09-20T05:24:05.455Z,80.71
2018-09-20T05:26:33.898Z,81.60
2018-09-20T05:29:02.374Z,81.07
2018-09-20T05:31:30.788Z,81.61
2018-09-20T05:33:59.243Z,81.98
2018-09-20T05:36:27.682Z,81.76
2018-09-20T05:38:56.370Z,81.63
2018-09-20T05:41:25.033Z,81.87
2018-09-20T05:43:53.655Z,81.72
2018-09-20T05:46:22.197Z,82.26
2018-09-20T05:48:50.581Z,82.44
2018-09-20T05:51:19.010Z,82.12
2018-09-20T05:53:47.651Z,81.45
2018-09-20T05:56:16.119Z,80.40
2018-09-20T05:58:44.670Z,81.91
2018-09-20T06:01:13.148Z,80.76
2018-09-20T06:03:41.575Z,81.75
2018-09-20T06:06:10.025Z,80.64
2018-09-20T06:08:38.495Z,81.08
2018-09-20T06:11:06.997Z,80.65
2018-09-20T06:13:35.537Z,80.59
2018-09-20T06:16:03.987Z,81.39
2018-09-20T06:18:32.361Z,80.26
2018-09-20T06:21:00.898Z,81.14
2018-09-20T06:23:29.284Z,80.86
2018-09-20T06:25:58.205Z,79.75
2018-09-20T06:28:26.654Z,79.45
2018-09-20T06:30:55.135Z,81.02
2018-09-20T06:33:23.830Z,79.57
2018-09-20T06:35:52.292Z,79.52
2018-09-20T06:38:20.740Z,77.50
2018-09-20T06:40:49.247Z,77.93
2018-09-20T06:43:17.720Z,78.81
2018-09-20T06:45:46.287Z,78.12
2018-09-20T06:48:14.806Z,77.64
2018-09-20T06:50:43.251Z,76.34
2018-09-20T06:53:11.714Z,75.37
2018-09-20T06:55:40.164Z,74.75
2018-09-20T06:58:08.743Z,74.31
2018-09-20T07:00:37.199Z,74.96
2018-09-20T07:03:05.767Z,74.42
2018-09-20T07:05:34.163Z,75.05
2018-09-20T07:08:02.735Z,73.51
2018-09-20T07:10:31.128Z,73.54
2018-09-20T07:12:59.540Z,73.70
2018-09-20T07:15:27.925Z,71.42
2018-09-20T07:17:56.421Z,70.50
2018-09-20T07:20:24.890Z,71.93
2018-09-20T07:22:53.290Z,70.94
2018-09-20T07:25:22.020Z,71.50
2018-09-20T07:27:50.219Z,70.62
2018-09-20T07:30:18.748Z,71.58
2018-09-20T07:32:47.192Z,70.51
2018-09-20T07:35:15.661Z,68.57
2018-09-20T07:37:44.071Z,67.72
2018-09-20T07:40:12.460Z,68.29
2018-09-20T07:42:40.913Z,66.74
2018-09-20T07:45:10.718Z,67.07
2018-09-20T07:47:39.340Z,65.98
2018-09-20T07:50:07.854Z,66.20
2018-09-20T07:52:36.243Z,65.79
2018-09-20T07:55:04.741Z,66.60
2018-09-20T07:57:33.298Z,63.34
2018-09-20T08:00:02.976Z,63.58
2018-09-20T08:02:31.574Z,62.44
2018-09-20T08:04:59.961Z,63.67
2018-09-20T08:07:28.453Z,63.81
2018-09-20T08:09:56.907Z,63.64
2018-09-20T08:12:25.434Z,63.87
2018-09-20T08:14:54.404Z,62.75
2018-09-20T08:17:22.920Z,64.81
2018-09-20T08:19:51.379Z,62.66
2018-09-20T08:22:19.860Z,64.83
2018-09-20T08:24:48.283Z,64.32
2018-09-20T08:27:16.699Z,63.22
2018-09-20T08:29:45.309Z,63.35
2018-09-20T08:32:13.750Z,62.95
2018-09-20T08:34:42.171Z,63.22
2018-09-20T08:37:10.548Z,62.47
2018-09-20T08:39:38.930Z,61.72
2018-09-20T08:42:07.692Z,62.82
2018-09-20T08:44:36.095Z,61.69
2018-09-20T08:47:04.680Z,62.56
2018-09-20T08:49:33.214Z,62.45
2018-09-20T08:52:02.472Z,61.90
2018-09-20T08:54:31.050Z,61.53
2018-09-20T08:56:59.626Z,62.74
2018-09-20T08:59:28.000Z,60.51
2018-09-20T09:01:56.419Z,60.52
2018-09-20T09:04:24.813Z,61.14
2018-09-20T09:06:53.301Z,59.57
2018-09-20T09:09:21.713Z,60.77
2018-09-20T09:11:50.181Z,60.19
2018-09-20T09:14:18.640Z,59.95
2018-09-20T09:16:47.088Z,59.80
2018-09-20T09:19:15.494Z,58.35
2018-09-20T09:21:44.064Z,56.92
2018-09-20T09:24:12.785Z,57.39
2018-09-20T09:26:41.208Z,56.81
2018-09-20T09:29:09.677Z,57.49
2018-09-20T09:31:38.585Z,56.42
2018-09-20T09:34:07.048Z,56.02
2018-09-20T09:36:35.520Z,55.20
2018-09-20T09:39:05.524Z,54.34
2018-09-20T09:41:33.979Z,54.18
2018-09-20T09:44:02.505Z,54.38
2018-09-20T09:46:30.991Z,55.43
2018-09-20T09:48:59.719Z,55.46
2018-09-20T09:51:28.960Z,55.62
2018-09-20T09:53:57.594Z,55.38
2018-09-20T09:56:25.937Z,53.67
2018-09-20T09:58:54.323Z,54.01
2018-09-20T10:01:22.842Z,53.67
2018-09-20T10:03:51.252Z,53.06
2018-09-20T10:06:20.896Z,54.42
2018-09-20T10:08:49.287Z,52.72
2018-09-20T10:11:17.706Z,51.95
2018-09-20T10:13:46.623Z,51.67
2018-09-20T10:16:15.127Z,51.38
2018-09-20T10:18:43.528Z,52.82
2018-09-20T10:21:11.960Z,52.30
2018-09-20T10:23:40.360Z,52.82
2018-09-20T10:26:08.763Z,52.59
2018-09-20T10:28:37.104Z,51.16
2018-09-20T10:31:05.535Z,52.60
2018-09-20T10:33:34.036Z,52.89
2018-09-20T10:36:02.688Z,52.92
2018-09-20T10:38:31.168Z,53.63
2018-09-20T10:40:59.628Z,54.04
2018-09-20T10:43:28.034Z,53.57
2018-09-20T10:45:56.432Z,53.35
2018-09-20T10:48:25.655Z,52.90
2018-09-20T10:50:54.068Z,53.24
2018-09-20T10:53:22.482Z,53.42
2018-09-20T10:55:50.960Z,53.28
2018-09-20T10:58:19.443Z,53.34
2018-09-20T11:00:47.888Z,52.23
2018-09-20T11:03:16.301Z,52.63
2018-09-20T11:05:44.704Z,52.38
2018-09-20T11:08:13.109Z,53.07
2018-09-20T11:10:41.617Z,53.89
2018-09-20T11:13:10.116Z,53.78
2018-09-20T11:15:38.629Z,55.03
2018-09-20T11:18:06.996Z,54.32
2018-09-20T11:20:35.420Z,54.06
2018-09-20T11:23:03.837Z,54.01
2018-09-20T11:25:32.193Z,53.82
2018-09-20T11:28:00.599Z,53.85
2018-09-20T11:30:29.117Z,54.03
2018-09-20T11:32:57.526Z,53.15
2018-09-20T11:35:26.047Z,51.75
2018-09-20T11:37:54.464Z,51.21
2018-09-20T11:40:22.977Z,51.94
2018-09-20T11:42:51.461Z,51.50
2018-09-20T11:45:19.892Z,51.30
2018-09-20T11:47:48.444Z,49.56
2018-09-20T11:50:17.176Z,49.94
2018-09-20T11:52:45.581Z,49.56
2018-09-20T11:55:14.029Z,50.87
2018-09-20T11:57:43.487Z,51.01
2018-09-20T12:00:12.466Z,50.85
2018-09-20T12:02:40.905Z,51.27
2018-09-20T12:05:09.446Z,51.22
2018-09-20T12:07:38.448Z,51.50
2018-09-20T12:10:06.968Z,50.42
2018-09-20T12:12:35.379Z,50.00
2018-09-20T12:15:03.836Z,51.04
2018-09-20T12:17:32.485Z,50.07
2018-09-20T12:20:01.011Z,49.86
2018-09-20T12:22:29.765Z,49.42
2018-09-20T12:24:58.981Z,49.22
2018-09-20T12:27:27.844Z,49.52
2018-09-20T12:29:56.661Z,49.53
2018-09-20T12:32:25.166Z,47.90
2018-09-20T12:34:53.586Z,48.49
2018-09-20T12:37:26.198Z,48.38
2018-09-20T12:39:54.776Z,48.75
2018-09-20T12:42:23.235Z,49.20
2018-09-20T12:44:51.609Z,48.72
2018-09-20T12:47:20.128Z,48.56
2018-09-20T12:49:48.600Z,47.56
2018-09-20T12:52:16.950Z,47.24
2018-09-20T12:54:45.446Z,46.50
2018-09-20T12:57:13.967Z,47.06
2018-09-20T12:59:42.537Z,46.39
2018-09-20T13:02:11.000Z,47.00
2018-09-20T13:04:39.387Z,47.61
2018-09-20T13:07:07.865Z,46.64
2018-09-20T13:09:36.397Z,47.33
2018-09-20T13:12:04.885Z,47.43
2018-09-20T13:14:33.458Z,47.57
2018-09-20T13:17:01.899Z,46.75
2018-09-20T13:19:30.324Z,46.81
2018-09-20T13:21:58.800Z,47.54
2018-09-20T13:24:27.703Z,46.71
2018-09-20T13:26:56.346Z,46.98
2018-09-20T13:29:24.847Z,47.70
2018-09-20T13:31:53.545Z,48.52
2018-09-20T13:34:22.870Z,47.84
2018-09-20T13:36:51.991Z,46.91
2018-09-20T13:39:20.820Z,47.09
2018-09-20T13:41:50.036Z,47.16
2018-09-20T13:44:18.511Z,46.84
2018-09-20T13:46:46.920Z,47.33
2018-09-20T13:52:15.561Z,47.42
2018-09-20T13:54:46.341Z,47.76
2018-09-20T13:57:15.228Z,47.58
2018-09-20T13:59:43.829Z,46.71
2018-09-20T14:02:13.216Z,47.06
2018-09-20T14:04:42.504Z,47.91
2018-09-20T14:07:11.239Z,48.50
2018-09-20T14:09:39.980Z,47.25
2018-09-20T14:12:09.082Z,48.07
2018-09-20T14:14:37.842Z,47.68
2018-09-20T14:17:07.957Z,47.84
2018-09-20T14:19:36.512Z,47.69
2018-09-20T14:22:04.986Z,47.68
2018-09-20T14:24:33.634Z,47.32
2018-09-20T14:27:03.566Z,47.85
2018-09-20T14:29:32.170Z,48.77
2018-09-20T14:32:00.736Z,47.70
2018-09-20T14:34:29.428Z,47.01
2018-09-20T14:36:58.001Z,46.85
2018-09-20T14:39:27.315Z,47.71
2018-09-20T14:41:55.934Z,47.15
2018-09-20T14:44:24.651Z,46.90
2018-09-20T14:46:53.202Z,46.28
2018-09-20T14:49:21.978Z,47.24
2018-09-20T14:51:50.678Z,46.07
2018-09-20T14:54:19.672Z,46.93
2018-09-20T14:56:48.660Z,46.89
2018-09-20T14:59:17.403Z,46.71
2018-09-20T15:01:46.045Z,46.84
2018-09-20T15:04:14.569Z,46.24
2018-09-20T15:06:43.447Z,46.52
2018-09-20T15:09:13.487Z,46.14
2018-09-20T15:11:42.322Z,46.00
2018-09-20T15:14:10.919Z,46.64
2018-09-20T15:16:39.414Z,46.46
2018-09-20T15:19:08.289Z,46.92
2018-09-20T15:21:44.203Z,46.03
2018-09-20T15:24:12.692Z,47.06
2018-09-20T15:26:41.198Z,47.00
2018-09-20T15:29:09.706Z,46.71
2018-09-20T15:31:38.287Z,46.84
2018-09-20T15:34:07.068Z,46.91
2018-09-20T15:36:35.964Z,46.93
2018-09-20T15:39:07.189Z,46.68
2018-09-20T15:41:35.807Z,47.11
2018-09-20T15:44:04.636Z,46.50
2018-09-20T15:46:33.529Z,47.27
2018-09-20T15:49:02.695Z,47.58
2018-09-20T15:51:32.025Z,48.28
2018-09-20T15:54:00.526Z,48.03
2018-09-20T15:56:29.548Z,48.04
2018-09-20T15:58:58.287Z,47.66
2018-09-20T16:01:27.722Z,47.60
2018-09-20T16:03:56.363Z,48.30
2018-09-20T16:06:25.052Z,48.09
2018-09-20T16:08:53.548Z,48.89
2018-09-20T16:11:22.460Z,48.14
2018-09-20T16:13:51.734Z,48.31
2018-09-20T16:16:20.296Z,47.40
2018-09-20T16:18:49.432Z,48.07
2018-09-20T16:21:18.680Z,48.12
2018-09-20T16:23:47.533Z,49.08
2018-09-20T16:26:16.288Z,49.54
2018-09-20T16:29:33.959Z,49.12
2018-09-20T16:34:19.888Z,48.71
2018-09-20T16:37:01.690Z,48.86
2018-09-20T16:39:33.890Z,49.57
2018-09-20T16:42:04.304Z,50.17
2018-09-20T16:44:32.706Z,48.99
2018-09-20T16:47:02.184Z,49.63
2018-09-20T16:49:34.404Z,50.39
2018-09-20T16:52:03.570Z,51.10
2018-09-20T16:54:33.139Z,50.54
2018-09-20T16:57:01.646Z,50.39
2018-09-20T16:59:30.570Z,50.91
2018-09-20T17:01:59.859Z,51.08
2018-09-20T17:04:29.330Z,52.37
2018-09-20T17:06:58.452Z,52.06
2018-09-20T17:09:27.744Z,51.82
2018-09-20T17:11:56.512Z,52.49
2018-09-20T17:14:33.806Z,53.56
2018-09-20T17:17:02.141Z,54.07
2018-09-20T17:19:31.084Z,53.78
2018-09-20T17:22:00.328Z,54.02
2018-09-20T17:24:31.227Z,54.30
2018-09-20T17:27:00.602Z,54.77
2018-09-20T17:29:29.807Z,55.74
2018-09-20T17:32:01.052Z,56.14
2018-09-20T17:34:41.922Z,57.84
2018-09-20T17:37:12.819Z,57.27
2018-09-20T17:39:44.518Z,57.75
2018-09-20T17:42:14.723Z,59.02
2018-09-20T17:44:44.110Z,58.71
2018-09-20T17:47:13.803Z,58.20
2018-09-20T17:50:19.789Z,58.64
2018-09-20T17:52:59.617Z,58.49
2018-09-20T17:55:29.526Z,59.46
2018-09-20T17:58:00.055Z,59.41
2018-09-20T18:00:28.861Z,58.58
2018-09-20T18:02:58.386Z,58.68
2018-09-20T18:05:27.552Z,58.56
2018-09-20T18:07:56.152Z,57.98
2018-09-20T18:10:24.707Z,57.40
2018-09-20T18:12:53.395Z,57.90
2018-09-20T18:15:22.097Z,57.33
2018-09-20T18:17:50.990Z,56.63
2018-09-20T18:20:20.105Z,57.15
2018-09-20T18:22:49.476Z,57.26
2018-09-20T18:25:18.439Z,57.41
2018-09-20T18:27:47.232Z,57.34
2018-09-20T18:30:16.121Z,56.80
2018-09-20T18:32:45.142Z,57.32
2018-09-20T18:35:14.115Z,56.96
2018-09-20T18:37:43.332Z,56.37
2018-09-20T18:40:12.167Z,56.46
2018-09-20T18:42:41.569Z,56.52
2018-09-20T18:47:37.791Z,56.00
2018-09-20T18:50:06.371Z,56.65
2018-09-20T18:52:34.846Z,56.31
2018-09-20T18:55:03.365Z,56.59
2018-09-20T18:57:31.765Z,55.79
2018-09-20T19:00:00.552Z,55.94
2018-09-20T19:02:29.043Z,56.17
2018-09-20T19:04:57.531Z,56.42
2018-09-20T19:07:26.781Z,56.85
2018-09-20T19:09:55.888Z,57.05
2018-09-20T19:12:24.335Z,57.08
2018-09-20T19:14:52.873Z,56.80
2018-09-20T19:17:21.539Z,57.42
2018-09-20T19:19:49.948Z,57.92
2018-09-20T19:22:18.424Z,58.10
2018-09-20T19:24:46.884Z,58.01
2018-09-20T19:27:15.709Z,57.33
2018-09-20T19:29:45.105Z,57.72
2018-09-20T19:32:13.512Z,57.01
2018-09-20T19:34:44.265Z,57.02
2018-09-20T19:37:12.969Z,56.93
2018-09-20T19:39:41.365Z,56.84
2018-09-20T19:42:09.883Z,57.33
2018-09-20T19:44:38.329Z,57.29
2018-09-20T19:47:06.847Z,57.52
2018-09-20T19:49:35.284Z,57.62
2018-09-20T19:52:03.997Z,57.45
2018-09-20T19:54:32.554Z,58.32
2018-09-20T19:57:01.036Z,57.63
2018-09-20T19:59:29.605Z,58.11
2018-09-20T20:01:58.180Z,59.11
2018-09-20T20:04:26.649Z,58.18
2018-09-20T20:06:55.149Z,59.20
2018-09-20T20:09:23.606Z,59.07
2018-09-20T20:11:52.065Z,58.84
2018-09-20T20:14:20.581Z,59.27
2018-09-20T20:16:49.111Z,59.63
2018-09-20T20:19:17.665Z,61.06
2018-09-20T20:21:46.264Z,60.38
2018-09-20T20:24:14.780Z,60.66
2018-09-20T20:26:43.296Z,61.25
2018-09-20T20:29:11.933Z,61.85
2018-09-20T20:31:40.430Z,61.23
2018-09-20T20:34:08.927Z,61.34
2018-09-20T20:36:37.377Z,61.74
2018-09-20T20:39:08.116Z,62.09
2018-09-20T20:41:36.676Z,62.34
2018-09-20T20:44:05.125Z,62.07
2018-09-20T20:46:33.607Z,61.33
2018-09-20T20:49:02.107Z,60.84
2018-09-20T20:51:31.188Z,61.86
2018-09-20T20:54:00.704Z,62.83
2018-09-20T20:56:29.249Z,60.83
2018-09-20T20:58:57.873Z,61.29
2018-09-20T21:01:27.590Z,61.47
2018-09-20T21:03:56.808Z,61.46
2018-09-20T21:06:25.427Z,61.28
2018-09-20T21:08:53.943Z,61.90
2018-09-20T21:11:22.465Z,61.50
2018-09-20T21:13:51.043Z,61.12
2018-09-20T21:16:19.503Z,62.07
2018-09-20T21:18:48.014Z,60.84
2018-09-20T21:21:16.900Z,61.30
2018-09-20T21:23:45.344Z,61.85
2018-09-20T21:26:13.932Z,60.85
2018-09-20T21:28:42.742Z,61.49
2018-09-20T21:31:11.354Z,61.68
2018-09-20T21:33:39.834Z,62.09
2018-09-20T21:36:08.376Z,62.52
2018-09-20T21:38:36.932Z,62.57
2018-09-20T21:41:05.557Z,61.84
2018-09-20T21:43:34.181Z,62.23
2018-09-20T21:46:02.627Z,62.84
2018-09-20T21:48:31.097Z,63.14
2018-09-20T21:50:59.719Z,63.50
2018-09-20T21:53:28.162Z,63.62
2018-09-20T21:55:56.707Z,62.60
2018-09-20T21:58:25.155Z,63.49
2018-09-20T22:00:59.243Z,62.92
2018-09-20T22:03:28.873Z,62.32
2018-09-20T22:05:57.591Z,62.76
2018-09-20T22:08:26.143Z,62.60
2018-09-20T22:10:54.698Z,62.44
2018-09-20T22:13:23.654Z,61.80
2018-09-20T22:15:52.161Z,61.45
2018-09-20T22:18:20.729Z,61.54
2018-09-20T22:20:49.676Z,60.79
2018-09-20T22:23:18.219Z,60.98
2018-09-20T22:25:46.644Z,62.00
2018-09-20T22:28:15.188Z,60.47
2018-09-20T22:30:44.029Z,60.65
2018-09-20T22:33:12.432Z,62.11
2018-09-20T22:35:40.946Z,60.73
2018-09-20T22:38:10.284Z,61.09
2018-09-20T22:40:39.318Z,61.43
2018-09-20T22:43:08.649Z,61.22
2018-09-20T22:45:37.076Z,63.36
2018-09-20T22:48:05.692Z,61.64
2018-09-20T22:50:34.100Z,61.05
2018-09-20T22:53:02.560Z,62.08
2018-09-20T22:55:30.930Z,61.79
2018-09-20T22:57:59.512Z,61.86
2018-09-20T23:00:28.655Z,62.10
2018-09-20T23:02:57.190Z,62.94
2018-09-20T23:05:25.673Z,63.57
2018-09-20T23:07:54.345Z,63.49
2018-09-20T23:10:22.922Z,62.95
2018-09-20T23:12:51.360Z,63.75
2018-09-20T23:15:19.839Z,63.86
2018-09-20T23:17:48.543Z,64.80
2018-09-20T23:20:17.044Z,63.96
2018-09-20T23:22:45.541Z,64.78
2018-09-20T23:25:14.750Z,64.99
2018-09-20T23:27:43.301Z,64.18
2018-09-20T23:30:11.728Z,64.38
2018-09-20T23:32:40.939Z,64.26
2018-09-20T23:35:10.724Z,65.05
2018-09-20T23:37:40.212Z,64.76
2018-09-20T23:40:09.051Z,64.60
2018-09-20T23:42:37.452Z,64.90
2018-09-20T23:45:05.992Z,64.77
2018-09-20T23:47:35.388Z,64.59
2018-09-20T23:50:03.863Z,65.13
2018-09-20T23:52:32.998Z,64.57
2018-09-20T23:55:01.808Z,64.71
2018-09-20T23:57:30.248Z,64.71
2018-09-20T23:59:58.735Z,65.45
